createdAt,value
2018-12-13T00:00:44.447Z,5.57
2018-12-13T00:01:44.644Z,5.51
2018-12-13T00:02:44.841Z,5.44
2018-12-13T00:03:45.009Z,5.65
2018-12-13T00:04:45.185Z,5.48
2018-12-13T00:05:45.370Z,5.51
2018-12-13T00:06:45.533Z,5.50
2018-12-13T00:07:45.700Z,5.56
2018-12-13T00:08:45.865Z,5.50
2018-12-13T00:09:46.077Z,5.53
2018-12-13T00:10:46.135Z,5.50
2018-12-13T00:11:46.295Z,5.50
2018-12-13T00:12:46.469Z,5.54
2018-12-13T00:13:46.651Z,5.48
2018-12-13T00:14:46.808Z,5.53
2018-12-13T00:15:46.973Z,5.48
2018-12-13T00:16:47.151Z,5.51
2018-12-13T00:17:47.327Z,5.56
2018-12-13T00:18:47.486Z,5.46
2018-12-13T00:19:47.669Z,5.50
2018-12-13T00:20:47.832Z,5.54
2018-12-13T00:21:47.994Z,5.56
2018-12-13T00:22:48.162Z,5.57
2018-12-13T00:23:48.328Z,5.61
2018-12-13T00:24:48.499Z,5.56
2018-12-13T00:25:48.663Z,5.44
2018-12-13T00:26:48.824Z,5.48
2018-12-13T00:27:48.998Z,5.61
2018-12-13T00:28:49.166Z,5.56
2018-12-13T00:29:49.333Z,5.53
2018-12-13T00:30:49.499Z,5.64
2018-12-13T00:31:49.665Z,5.53
2018-12-13T00:32:49.829Z,5.38
2018-12-13T00:33:49.992Z,5.43
2018-12-13T00:34:50.152Z,5.46
2018-12-13T00:35:50.327Z,5.44
2018-12-13T00:36:50.489Z,5.36
2018-12-13T00:37:50.657Z,5.21
2018-12-13T00:38:50.828Z,5.32
2018-12-13T00:39:50.993Z,5.10
2018-12-13T00:40:51.157Z,5.20
2018-12-13T00:41:51.325Z,5.17
2018-12-13T00:42:51.507Z,5.23
2018-12-13T00:43:51.654Z,5.25
2018-12-13T00:44:51.820Z,5.25
2018-12-13T00:45:51.989Z,5.29
2018-12-13T00:46:52.155Z,5.33
2018-12-13T00:47:52.327Z,5.12
2018-12-13T00:48:52.488Z,5.18
2018-12-13T00:49:52.651Z,5.25
2018-12-13T00:50:52.817Z,5.20
2018-12-13T00:51:52.984Z,5.10
2018-12-13T00:52:53.149Z,5.23
2018-12-13T00:53:53.319Z,5.20
2018-12-13T00:54:53.480Z,5.15
2018-12-13T00:55:53.638Z,5.07
2018-12-13T00:56:53.819Z,5.14
2018-12-13T00:57:53.986Z,5.07
2018-12-13T00:58:54.166Z,5.00
2018-12-13T00:59:54.337Z,4.94
2018-12-13T01:00:54.501Z,4.97
2018-12-13T01:01:54.670Z,4.89
2018-12-13T01:02:54.839Z,4.99
2018-12-13T01:03:54.999Z,4.90
2018-12-13T01:04:55.180Z,4.94
2018-12-13T01:05:55.340Z,4.94
2018-12-13T01:06:55.510Z,4.86
2018-12-13T01:07:55.682Z,4.90
2018-12-13T01:08:55.845Z,4.74
2018-12-13T01:09:56.056Z,4.78
2018-12-13T01:10:56.216Z,4.73
2018-12-13T01:11:56.385Z,4.77
2018-12-13T01:12:56.568Z,4.73
2018-12-13T01:13:56.730Z,4.78
2018-12-13T01:14:56.894Z,4.68
2018-12-13T01:15:57.065Z,4.73
2018-12-13T01:16:57.236Z,4.63
2018-12-13T01:17:57.425Z,4.70
2018-12-13T01:18:57.589Z,4.67
2018-12-13T01:19:57.754Z,4.59
2018-12-13T01:20:57.939Z,4.58
2018-12-13T01:21:58.097Z,4.62
2018-12-13T01:22:58.263Z,4.73
2018-12-13T01:23:58.446Z,4.71
2018-12-13T01:24:58.613Z,4.66
2018-12-13T01:25:58.776Z,4.60
2018-12-13T01:26:58.963Z,4.71
2018-12-13T01:27:59.123Z,4.58
2018-12-13T01:28:59.288Z,4.59
2018-12-13T01:29:59.448Z,4.62
2018-12-13T01:30:59.613Z,4.60
2018-12-13T01:31:59.774Z,4.59
2018-12-13T01:32:59.935Z,4.58
2018-12-13T01:34:00.105Z,4.58
2018-12-13T01:35:00.260Z,4.53
2018-12-13T01:36:00.424Z,4.55
2018-12-13T01:37:00.588Z,4.56
2018-12-13T01:38:00.745Z,4.55
2018-12-13T01:39:00.907Z,4.53
2018-12-13T01:40:01.066Z,4.56
2018-12-13T01:41:01.228Z,4.48
2018-12-13T01:42:01.399Z,4.48
2018-12-13T01:43:01.567Z,4.55
2018-12-13T01:44:01.727Z,4.45
2018-12-13T01:45:01.886Z,4.45
2018-12-13T01:46:02.215Z,4.48
2018-12-13T01:47:02.156Z,4.49
2018-12-13T01:48:02.332Z,4.45
2018-12-13T01:49:02.517Z,4.41
2018-12-13T01:50:02.677Z,4.48
2018-12-13T01:51:02.843Z,4.42
2018-12-13T01:52:03.015Z,4.45
2018-12-13T01:53:03.180Z,4.45
2018-12-13T01:54:03.340Z,4.35
2018-12-13T01:55:03.502Z,4.44
2018-12-13T01:56:03.666Z,4.26
2018-12-13T01:57:03.828Z,4.28
2018-12-13T01:58:03.997Z,4.22
2018-12-13T01:59:04.165Z,4.24
2018-12-13T02:00:04.327Z,4.20
2018-12-13T02:01:04.493Z,4.12
2018-12-13T02:02:04.658Z,4.12
2018-12-13T02:03:04.817Z,3.95
2018-12-13T02:04:04.978Z,4.05
2018-12-13T02:05:05.159Z,3.99
2018-12-13T02:06:05.319Z,4.05
2018-12-13T02:07:05.476Z,4.10
2018-12-13T02:08:05.640Z,4.08
2018-12-13T02:09:05.811Z,4.04
2018-12-13T02:10:06.064Z,4.12
2018-12-13T02:11:06.142Z,4.06
2018-12-13T02:12:06.293Z,4.12
2018-12-13T02:13:06.490Z,3.99
2018-12-13T02:14:06.626Z,4.01
2018-12-13T02:15:06.791Z,4.13
2018-12-13T02:16:06.958Z,4.13
2018-12-13T02:17:07.119Z,3.92
2018-12-13T02:18:07.282Z,3.92
2018-12-13T02:19:07.449Z,3.98
2018-12-13T02:20:07.609Z,4.01
2018-12-13T02:21:07.768Z,3.99
2018-12-13T02:22:07.929Z,4.05
2018-12-13T02:23:08.097Z,4.06
2018-12-13T02:24:08.258Z,4.13
2018-12-13T02:25:08.428Z,4.08
2018-12-13T02:26:08.593Z,4.05
2018-12-13T02:27:08.755Z,4.01
2018-12-13T02:28:08.931Z,4.10
2018-12-13T02:29:09.131Z,4.02
2018-12-13T02:30:09.288Z,4.02
2018-12-13T02:31:09.467Z,4.10
2018-12-13T02:32:09.622Z,4.17
2018-12-13T02:33:09.784Z,4.16
2018-12-13T02:34:09.950Z,4.05
2018-12-13T02:35:10.111Z,3.99
2018-12-13T02:36:10.262Z,3.94
2018-12-13T02:37:10.424Z,3.98
2018-12-13T02:38:10.592Z,3.96
2018-12-13T02:39:10.758Z,3.98
2018-12-13T02:40:10.919Z,3.88
2018-12-13T02:41:11.080Z,4.01
2018-12-13T02:42:11.248Z,3.96
2018-12-13T02:43:11.407Z,3.98
2018-12-13T02:44:14.011Z,3.88
2018-12-13T02:45:11.743Z,3.78
2018-12-13T02:46:11.916Z,3.86
2018-12-13T02:47:12.071Z,3.78
2018-12-13T02:48:12.245Z,3.77
2018-12-13T02:49:12.396Z,3.76
2018-12-13T02:50:12.559Z,3.69
2018-12-13T02:51:12.715Z,3.78
2018-12-13T02:52:12.890Z,3.77
2018-12-13T02:53:13.056Z,3.74
2018-12-13T02:54:13.222Z,3.74
2018-12-13T02:55:13.393Z,3.76
2018-12-13T02:56:13.551Z,3.77
2018-12-13T02:57:13.716Z,3.70
2018-12-13T02:58:13.876Z,3.69
2018-12-13T02:59:14.041Z,3.69
2018-12-13T03:00:14.201Z,3.69
2018-12-13T03:01:18.717Z,3.69
2018-12-13T03:02:19.607Z,3.69
2018-12-13T03:03:20.105Z,3.63
2018-12-13T03:04:19.614Z,3.66
2018-12-13T03:05:18.297Z,3.74
2018-12-13T03:06:19.489Z,3.70
2018-12-13T03:07:20.018Z,3.63
2018-12-13T03:08:15.853Z,3.60
2018-12-13T03:09:18.776Z,3.68
2018-12-13T03:10:20.126Z,3.74
2018-12-13T03:11:16.496Z,3.70
2018-12-13T03:12:16.425Z,3.70
2018-12-13T03:13:16.363Z,3.69
2018-12-13T03:14:16.528Z,3.73
2018-12-13T03:15:16.697Z,3.74
2018-12-13T03:16:16.861Z,3.70
2018-12-13T03:17:17.009Z,3.69
2018-12-13T03:18:17.282Z,3.56
2018-12-13T03:19:17.318Z,3.62
2018-12-13T03:20:17.477Z,3.70
2018-12-13T03:21:18.261Z,3.63
2018-12-13T03:22:18.067Z,3.73
2018-12-13T03:23:18.462Z,3.68
2018-12-13T03:24:18.355Z,3.69
2018-12-13T03:25:19.124Z,3.74
2018-12-13T03:26:18.618Z,3.76
2018-12-13T03:27:18.785Z,3.70
2018-12-13T03:28:18.904Z,3.73
2018-12-13T03:29:18.951Z,3.69
2018-12-13T03:30:19.077Z,3.58
2018-12-13T03:31:19.253Z,3.59
2018-12-13T03:32:19.408Z,3.60
2018-12-13T03:33:19.568Z,3.51
2018-12-13T03:34:19.759Z,3.42
2018-12-13T03:35:24.278Z,3.47
2018-12-13T03:36:23.943Z,3.51
2018-12-13T03:37:23.689Z,3.34
2018-12-13T03:38:23.561Z,3.41
2018-12-13T03:39:24.245Z,3.51
2018-12-13T03:40:20.743Z,3.41
2018-12-13T03:41:20.911Z,3.41
2018-12-13T03:42:21.084Z,3.40
2018-12-13T03:43:21.240Z,3.55
2018-12-13T03:44:21.406Z,3.42
2018-12-13T03:45:21.561Z,3.40
2018-12-13T03:46:21.725Z,3.36
2018-12-13T03:47:21.883Z,3.37
2018-12-13T03:48:22.070Z,3.60
2018-12-13T03:49:22.258Z,3.48
2018-12-13T03:50:22.413Z,3.53
2018-12-13T03:51:22.576Z,3.50
2018-12-13T03:52:22.742Z,3.58
2018-12-13T03:53:22.911Z,3.55
2018-12-13T03:54:23.065Z,3.56
2018-12-13T03:55:23.229Z,3.66
2018-12-13T03:56:23.392Z,3.76
2018-12-13T03:57:23.556Z,3.58
2018-12-13T03:58:23.718Z,3.73
2018-12-13T03:59:23.898Z,3.77
2018-12-13T04:00:24.050Z,3.76
2018-12-13T04:01:24.214Z,3.70
2018-12-13T04:02:24.382Z,3.80
2018-12-13T04:03:24.545Z,3.77
2018-12-13T04:04:24.705Z,3.77
2018-12-13T04:05:24.873Z,3.80
2018-12-13T04:06:25.049Z,3.81
2018-12-13T04:07:27.856Z,3.78
2018-12-13T04:08:25.365Z,3.81
2018-12-13T04:09:25.567Z,3.76
2018-12-13T04:10:25.695Z,3.68
2018-12-13T04:11:25.851Z,3.70
2018-12-13T04:12:26.040Z,3.70
2018-12-13T04:13:26.239Z,3.68
2018-12-13T04:14:26.420Z,3.58
2018-12-13T04:15:26.578Z,3.66
2018-12-13T04:16:26.741Z,3.56
2018-12-13T04:17:26.938Z,3.63
2018-12-13T04:18:27.117Z,3.58
2018-12-13T04:19:27.279Z,3.63
2018-12-13T04:20:27.439Z,3.60
2018-12-13T04:21:27.604Z,3.48
2018-12-13T04:22:27.793Z,3.50
2018-12-13T04:23:27.954Z,3.59
2018-12-13T04:24:28.166Z,3.58
2018-12-13T04:25:28.292Z,3.62
2018-12-13T04:26:28.462Z,3.63
2018-12-13T04:27:28.647Z,3.56
2018-12-13T04:28:28.821Z,3.56
2018-12-13T04:29:32.198Z,3.59
2018-12-13T04:30:31.658Z,3.65
2018-12-13T04:31:31.640Z,3.63
2018-12-13T04:32:29.453Z,3.50
2018-12-13T04:33:29.642Z,3.63
2018-12-13T04:34:29.798Z,3.63
2018-12-13T04:35:29.955Z,3.62
2018-12-13T04:36:30.145Z,3.65
2018-12-13T04:37:35.243Z,3.56
2018-12-13T04:38:30.474Z,3.56
2018-12-13T04:39:30.639Z,3.37
2018-12-13T04:40:30.807Z,3.44
2018-12-13T04:41:30.982Z,3.34
2018-12-13T04:42:31.141Z,3.36
2018-12-13T04:43:31.301Z,3.44
2018-12-13T04:44:31.465Z,3.47
2018-12-13T04:45:31.629Z,3.47
2018-12-13T04:46:31.804Z,3.53
2018-12-13T04:47:31.976Z,3.47
2018-12-13T04:48:32.152Z,3.50
2018-12-13T04:49:32.304Z,3.37
2018-12-13T04:50:32.469Z,3.36
2018-12-13T04:51:32.620Z,3.37
2018-12-13T04:52:32.785Z,3.34
2018-12-13T04:53:32.965Z,3.40
2018-12-13T04:54:33.115Z,3.36
2018-12-13T04:55:33.281Z,3.37
2018-12-13T04:56:33.446Z,3.47
2018-12-13T04:57:33.662Z,3.29
2018-12-13T04:58:33.774Z,3.44
2018-12-13T04:59:33.949Z,3.37
2018-12-13T05:00:34.172Z,3.37
2018-12-13T05:01:34.262Z,3.40
2018-12-13T05:02:34.423Z,3.40
2018-12-13T05:03:34.576Z,3.51
2018-12-13T05:04:34.754Z,3.45
2018-12-13T05:05:34.910Z,3.36
2018-12-13T05:06:35.153Z,3.41
2018-12-13T05:07:41.509Z,3.34
2018-12-13T05:08:35.360Z,3.32
2018-12-13T05:09:35.531Z,3.48
2018-12-13T05:10:35.704Z,3.51
2018-12-13T05:11:35.867Z,3.58
2018-12-13T05:12:36.046Z,3.59
2018-12-13T05:13:36.243Z,3.59
2018-12-13T05:14:36.498Z,3.69
2018-12-13T05:15:36.557Z,3.58
2018-12-13T05:16:36.733Z,3.60
2018-12-13T05:17:36.897Z,3.45
2018-12-13T05:18:37.060Z,3.56
2018-12-13T05:19:37.221Z,3.63
2018-12-13T05:20:37.395Z,3.58
2018-12-13T05:21:37.553Z,3.62
2018-12-13T05:22:37.790Z,3.59
2018-12-13T05:23:37.883Z,3.66
2018-12-13T05:24:37.925Z,3.65
2018-12-13T05:25:38.102Z,3.62
2018-12-13T05:26:38.283Z,3.56
2018-12-13T05:27:38.470Z,3.63
2018-12-13T05:28:38.636Z,3.58
2018-12-13T05:29:38.821Z,3.62
2018-12-13T05:30:38.980Z,3.70
2018-12-13T05:31:39.147Z,3.55
2018-12-13T05:32:39.322Z,3.59
2018-12-13T05:33:39.485Z,3.59
2018-12-13T05:34:39.647Z,3.66
2018-12-13T05:35:39.819Z,3.69
2018-12-13T05:36:40.012Z,3.68
2018-12-13T05:37:40.095Z,3.70
2018-12-13T05:38:40.254Z,3.70
2018-12-13T05:39:40.422Z,3.69
2018-12-13T05:40:40.590Z,3.74
2018-12-13T05:41:40.752Z,3.80
2018-12-13T05:42:41.117Z,3.77
2018-12-13T05:43:41.335Z,3.70
2018-12-13T05:44:41.274Z,3.73
2018-12-13T05:45:41.460Z,3.56
2018-12-13T05:46:41.654Z,3.59
2018-12-13T05:47:41.727Z,3.59
2018-12-13T05:48:41.896Z,3.58
2018-12-13T05:49:42.080Z,3.62
2018-12-13T05:50:42.379Z,3.58
2018-12-13T05:51:42.382Z,3.59
2018-12-13T05:52:43.324Z,3.68
2018-12-13T05:53:42.727Z,3.70
2018-12-13T05:54:42.882Z,3.63
2018-12-13T05:55:43.061Z,3.63
2018-12-13T05:56:43.247Z,3.69
2018-12-13T05:57:45.064Z,3.62
2018-12-13T05:58:43.716Z,3.58
2018-12-13T05:59:43.726Z,3.59
2018-12-13T06:00:43.895Z,3.51
2018-12-13T06:01:44.073Z,3.53
2018-12-13T06:02:44.287Z,3.50
2018-12-13T06:03:44.434Z,3.51
2018-12-13T06:04:44.636Z,3.47
2018-12-13T06:05:44.801Z,3.45
2018-12-13T06:06:44.968Z,3.50
2018-12-13T06:07:45.140Z,3.53
2018-12-13T06:08:45.323Z,3.44
2018-12-13T06:09:45.994Z,3.45
2018-12-13T06:10:45.719Z,3.36
2018-12-13T06:11:45.882Z,3.45
2018-12-13T06:12:46.346Z,3.40
2018-12-13T06:13:46.400Z,3.40
2018-12-13T06:14:46.357Z,3.37
2018-12-13T06:15:46.619Z,3.29
2018-12-13T06:16:46.601Z,3.28
2018-12-13T06:17:46.768Z,3.32
2018-12-13T06:18:46.921Z,3.25
2018-12-13T06:19:47.089Z,3.23
2018-12-13T06:20:47.251Z,3.32
2018-12-13T06:21:49.160Z,3.29
2018-12-13T06:22:48.785Z,3.31
2018-12-13T06:23:50.027Z,3.19
2018-12-13T06:24:49.857Z,3.16
2018-12-13T06:25:50.533Z,3.10
2018-12-13T06:26:50.052Z,3.08
2018-12-13T06:27:51.691Z,3.11
2018-12-13T06:28:51.870Z,3.16
2018-12-13T06:29:58.543Z,3.18
2018-12-13T06:30:52.254Z,3.11
2018-12-13T06:31:51.446Z,3.05
2018-12-13T06:32:50.337Z,3.11
2018-12-13T06:33:52.545Z,3.13
2018-12-13T06:34:51.587Z,3.22
2018-12-13T06:35:53.550Z,3.18
2018-12-13T06:36:54.273Z,3.16
2018-12-13T06:37:53.456Z,3.14
2018-12-13T06:38:53.386Z,3.11
2018-12-13T06:39:54.067Z,3.13
2018-12-13T06:40:55.053Z,3.25
2018-12-13T06:41:53.908Z,3.11
2018-12-13T06:42:53.646Z,3.14
2018-12-13T06:43:53.579Z,3.08
2018-12-13T06:44:53.942Z,3.13
2018-12-13T06:45:54.534Z,3.10
2018-12-13T06:46:53.027Z,3.13
2018-12-13T06:47:51.381Z,3.18
2018-12-13T06:48:51.550Z,3.11
2018-12-13T06:49:51.713Z,3.18
2018-12-13T06:50:51.870Z,3.26
2018-12-13T06:51:52.034Z,3.31
2018-12-13T06:52:52.201Z,3.23
2018-12-13T06:53:53.612Z,3.26
2018-12-13T06:54:52.495Z,3.25
2018-12-13T06:55:52.675Z,3.28
2018-12-13T06:56:52.837Z,3.23
2018-12-13T06:57:52.997Z,3.19
2018-12-13T06:58:53.166Z,3.22
2018-12-13T06:59:53.354Z,3.25
2018-12-13T07:00:53.434Z,3.18
2018-12-13T07:01:53.606Z,3.11
2018-12-13T07:02:53.773Z,3.04
2018-12-13T07:03:54.164Z,3.01
2018-12-13T07:04:54.178Z,2.87
2018-12-13T07:05:54.207Z,2.95
2018-12-13T07:06:54.380Z,2.93
2018-12-13T07:07:54.547Z,2.93
2018-12-13T07:08:54.709Z,2.93
2018-12-13T07:09:54.876Z,2.89
2018-12-13T07:10:55.049Z,2.87
2018-12-13T07:11:55.229Z,2.97
2018-12-13T07:12:55.401Z,2.95
2018-12-13T07:13:55.558Z,2.89
2018-12-13T07:14:55.731Z,2.90
2018-12-13T07:15:55.900Z,2.83
2018-12-13T07:16:56.057Z,2.77
2018-12-13T07:17:56.221Z,2.67
2018-12-13T07:18:56.408Z,2.80
2018-12-13T07:19:56.550Z,2.83
2018-12-13T07:20:56.714Z,2.68
2018-12-13T07:21:56.880Z,2.56
2018-12-13T07:22:57.033Z,2.71
2018-12-13T07:23:57.200Z,2.56
2018-12-13T07:24:57.364Z,2.71
2018-12-13T07:25:57.534Z,2.77
2018-12-13T07:26:57.692Z,2.85
2018-12-13T07:27:57.872Z,2.82
2018-12-13T07:28:58.030Z,2.79
2018-12-13T07:29:58.189Z,2.60
2018-12-13T07:30:58.342Z,2.56
2018-12-13T07:31:58.519Z,2.72
2018-12-13T07:32:58.686Z,2.68
2018-12-13T07:33:58.857Z,2.85
2018-12-13T07:35:01.423Z,2.77
2018-12-13T07:35:59.186Z,2.77
2018-12-13T07:36:59.356Z,2.68
2018-12-13T07:37:59.524Z,2.80
2018-12-13T07:38:59.684Z,2.87
2018-12-13T07:39:59.849Z,2.72
2018-12-13T07:41:00.012Z,2.90
2018-12-13T07:42:00.204Z,2.82
2018-12-13T07:43:00.883Z,2.87
2018-12-13T07:44:00.478Z,2.87
2018-12-13T07:45:02.007Z,2.97
2018-12-13T07:46:00.813Z,2.97
2018-12-13T07:47:01.046Z,3.04
2018-12-13T07:48:01.086Z,3.08
2018-12-13T07:49:01.252Z,3.10
2018-12-13T07:50:01.411Z,3.13
2018-12-13T07:51:02.597Z,3.14
2018-12-13T07:52:01.743Z,3.01
2018-12-13T07:53:01.925Z,3.21
2018-12-13T07:54:02.071Z,3.19
2018-12-13T07:55:02.240Z,3.22
2018-12-13T07:56:02.410Z,3.21
2018-12-13T07:57:02.585Z,3.16
2018-12-13T07:58:02.762Z,3.21
2018-12-13T07:59:02.937Z,3.21
2018-12-13T08:00:03.100Z,3.14
2018-12-13T08:01:03.267Z,3.14
2018-12-13T08:02:03.427Z,3.16
2018-12-13T08:03:03.617Z,3.16
2018-12-13T08:04:03.772Z,3.07
2018-12-13T08:05:04.486Z,2.95
2018-12-13T08:06:04.100Z,3.08
2018-12-13T08:07:04.290Z,3.11
2018-12-13T08:08:04.446Z,3.07
2018-12-13T08:09:04.621Z,3.25
2018-12-13T08:10:04.781Z,3.18
2018-12-13T08:11:04.951Z,3.26
2018-12-13T08:12:05.119Z,3.28
2018-12-13T08:13:05.276Z,3.41
2018-12-13T08:14:05.439Z,3.36
2018-12-13T08:15:05.609Z,3.32
2018-12-13T08:16:05.781Z,3.37
2018-12-13T08:17:05.936Z,3.34
2018-12-13T08:18:06.144Z,3.36
2018-12-13T08:19:06.308Z,3.48
2018-12-13T08:20:06.487Z,3.58
2018-12-13T08:21:06.780Z,3.47
2018-12-13T08:22:06.886Z,3.73
2018-12-13T08:23:07.059Z,3.76
2018-12-13T08:24:07.224Z,3.92
2018-12-13T08:25:07.384Z,4.28
2018-12-13T08:26:07.565Z,4.37
2018-12-13T08:27:07.803Z,4.50
2018-12-13T08:28:07.931Z,4.49
2018-12-13T08:29:08.692Z,4.58
2018-12-13T08:30:08.202Z,4.60
2018-12-13T08:31:08.367Z,4.80
2018-12-13T08:32:08.530Z,4.80
2018-12-13T08:33:08.779Z,4.87
2018-12-13T08:34:08.831Z,4.90
2018-12-13T08:35:09.074Z,5.04
2018-12-13T08:36:09.123Z,5.29
2018-12-13T08:37:09.291Z,5.51
2018-12-13T08:38:09.541Z,6.02
2018-12-13T08:39:10.046Z,6.35
2018-12-13T08:40:09.797Z,6.35
2018-12-13T08:41:09.970Z,6.84
2018-12-13T08:42:10.137Z,7.05
2018-12-13T08:43:10.306Z,6.85
2018-12-13T08:44:10.480Z,6.75
2018-12-13T08:45:10.645Z,6.70
2018-12-13T08:46:10.819Z,6.59
2018-12-13T08:47:10.985Z,6.93
2018-12-13T08:48:11.180Z,7.31
2018-12-13T08:49:11.343Z,7.73
2018-12-13T08:50:11.510Z,7.95
2018-12-13T08:51:11.683Z,8.12
2018-12-13T08:52:11.867Z,8.18
2018-12-13T08:53:12.026Z,8.13
2018-12-13T08:54:12.200Z,8.36
2018-12-13T08:55:12.370Z,8.49
2018-12-13T08:56:12.531Z,8.30
2018-12-13T08:57:13.662Z,8.60
2018-12-13T08:58:14.266Z,9.04
2018-12-13T08:59:13.124Z,9.37
2018-12-13T09:00:13.310Z,9.69
2018-12-13T09:01:15.593Z,9.97
2018-12-13T09:02:14.277Z,9.97
2018-12-13T09:03:15.188Z,10.04
2018-12-13T09:04:14.864Z,10.01
2018-12-13T09:05:14.230Z,10.23
2018-12-13T09:06:15.594Z,10.30
2018-12-13T09:07:15.169Z,10.48
2018-12-13T09:08:16.369Z,10.60
2018-12-13T09:09:15.624Z,10.61
2018-12-13T09:10:15.375Z,10.68
2018-12-13T09:11:15.061Z,10.68
2018-12-13T09:12:15.260Z,10.75
2018-12-13T09:13:15.592Z,10.89
2018-12-13T09:14:15.636Z,11.19
2018-12-13T09:15:15.826Z,11.36
2018-12-13T09:16:15.999Z,11.75
2018-12-13T09:17:16.176Z,12.13
2018-12-13T09:18:16.979Z,12.29
2018-12-13T09:19:16.522Z,12.37
2018-12-13T09:20:16.753Z,12.67
2018-12-13T09:21:16.839Z,13.05
2018-12-13T09:22:17.026Z,13.49
2018-12-13T09:23:17.261Z,13.77
2018-12-13T09:24:17.309Z,13.46
2018-12-13T09:25:17.543Z,13.04
2018-12-13T09:26:17.643Z,13.33
2018-12-13T09:27:17.698Z,13.47
2018-12-13T09:28:17.868Z,13.65
2018-12-13T09:29:18.432Z,13.81
2018-12-13T09:30:18.218Z,14.28
2018-12-13T09:31:18.386Z,14.00
2018-12-13T09:32:18.563Z,14.10
2018-12-13T09:33:18.778Z,13.93
2018-12-13T09:34:19.139Z,14.14
2018-12-13T09:35:19.309Z,13.79
2018-12-13T09:36:19.238Z,13.92
2018-12-13T09:37:19.582Z,13.86
2018-12-13T09:38:19.543Z,13.96
2018-12-13T09:39:19.706Z,13.72
2018-12-13T09:40:19.877Z,13.77
2018-12-13T09:41:20.047Z,13.78
2018-12-13T09:42:20.265Z,13.81
2018-12-13T09:43:20.465Z,13.74
2018-12-13T09:44:20.512Z,13.78
2018-12-13T09:45:20.697Z,13.90
2018-12-13T09:46:20.889Z,13.99
2018-12-13T09:47:21.064Z,13.81
2018-12-13T09:48:21.233Z,13.86
2018-12-13T09:49:22.521Z,13.90
2018-12-13T09:50:22.658Z,13.97
2018-12-13T09:51:21.910Z,13.97
2018-12-13T09:52:22.062Z,13.79
2018-12-13T09:53:22.247Z,13.90
2018-12-13T09:54:24.184Z,13.65
2018-12-13T09:55:23.581Z,13.67
2018-12-13T09:56:24.672Z,13.83
2018-12-13T09:57:23.020Z,13.81
2018-12-13T09:58:23.081Z,13.96
2018-12-13T09:59:24.565Z,13.99
2018-12-13T10:00:23.580Z,13.56
2018-12-13T10:01:23.828Z,13.59
2018-12-13T10:02:23.786Z,13.33
2018-12-13T10:03:24.137Z,13.05
2018-12-13T10:04:25.441Z,12.91
2018-12-13T10:05:24.227Z,13.00
2018-12-13T10:06:24.470Z,13.09
2018-12-13T10:07:24.644Z,12.97
2018-12-13T10:08:24.749Z,12.94
2018-12-13T10:09:25.038Z,12.62
2018-12-13T10:10:25.252Z,12.20
2018-12-13T10:11:25.788Z,12.18
2018-12-13T10:12:25.641Z,12.07
2018-12-13T10:13:25.644Z,12.06
2018-12-13T10:14:26.074Z,11.57
2018-12-13T10:15:31.844Z,11.60
2018-12-13T10:16:26.188Z,12.03
2018-12-13T10:17:26.447Z,12.13
2018-12-13T10:18:26.494Z,12.47
2018-12-13T10:19:26.673Z,12.55
2018-12-13T10:20:26.873Z,12.85
2018-12-13T10:21:27.037Z,13.00
2018-12-13T10:22:28.639Z,12.47
2018-12-13T10:23:27.547Z,12.93
2018-12-13T10:24:27.873Z,12.95
2018-12-13T10:25:27.796Z,12.31
2018-12-13T10:26:28.894Z,12.64
2018-12-13T10:27:28.934Z,12.90
2018-12-13T10:28:28.199Z,12.97
2018-12-13T10:29:28.362Z,12.82
2018-12-13T10:30:28.555Z,12.76
2018-12-13T10:31:28.711Z,12.95
2018-12-13T10:32:28.910Z,12.94
2018-12-13T10:33:29.171Z,12.62
2018-12-13T10:34:29.213Z,12.60
2018-12-13T10:35:29.890Z,12.29
2018-12-13T10:36:29.677Z,12.20
2018-12-13T10:37:30.197Z,12.15
2018-12-13T10:38:30.543Z,11.84
2018-12-13T10:39:30.520Z,12.03
2018-12-13T10:40:30.270Z,11.29
2018-12-13T10:41:30.408Z,11.12
2018-12-13T10:42:30.922Z,11.27
2018-12-13T10:43:32.183Z,11.07
2018-12-13T10:44:32.659Z,10.81
2018-12-13T10:45:32.154Z,10.71
2018-12-13T10:46:31.325Z,10.78
2018-12-13T10:47:31.817Z,10.72
2018-12-13T10:48:34.454Z,10.63
2018-12-13T10:49:32.074Z,10.69
2018-12-13T10:50:32.657Z,10.16
2018-12-13T10:51:31.473Z,9.84
2018-12-13T10:52:31.974Z,9.98
2018-12-13T10:53:31.981Z,10.02
2018-12-13T10:54:32.162Z,10.19
2018-12-13T10:55:32.379Z,10.23
2018-12-13T10:56:32.634Z,10.41
2018-12-13T10:57:32.756Z,10.20
2018-12-13T10:58:32.974Z,9.98
2018-12-13T10:59:32.910Z,9.59
2018-12-13T11:00:33.077Z,10.02
2018-12-13T11:01:33.250Z,10.17
2018-12-13T11:02:33.417Z,10.09
2018-12-13T11:03:33.604Z,9.59
2018-12-13T11:04:33.757Z,9.19
2018-12-13T11:05:34.010Z,9.50
2018-12-13T11:06:34.122Z,9.55
2018-12-13T11:07:34.720Z,9.23
2018-12-13T11:08:34.505Z,9.54
2018-12-13T11:09:34.585Z,9.64
2018-12-13T11:10:34.738Z,9.32
2018-12-13T11:11:34.914Z,9.04
2018-12-13T11:12:35.118Z,8.79
2018-12-13T11:13:35.774Z,8.70
2018-12-13T11:14:36.671Z,8.45
2018-12-13T11:15:35.662Z,8.12
2018-12-13T11:16:35.683Z,8.01
2018-12-13T11:17:35.858Z,8.00
2018-12-13T11:18:35.967Z,7.98
2018-12-13T11:19:36.141Z,8.00
2018-12-13T11:20:36.337Z,7.94
2018-12-13T11:21:36.507Z,7.69
2018-12-13T11:22:36.674Z,7.56
2018-12-13T11:23:36.853Z,7.50
2018-12-13T11:24:37.381Z,7.56
2018-12-13T11:25:37.341Z,7.36
2018-12-13T11:26:37.341Z,7.31
2018-12-13T11:27:37.696Z,7.11
2018-12-13T11:28:37.643Z,6.96
2018-12-13T11:29:37.828Z,7.05
2018-12-13T11:30:38.072Z,7.18
2018-12-13T11:31:38.088Z,7.29
2018-12-13T11:32:38.292Z,7.35
2018-12-13T11:33:38.499Z,7.42
2018-12-13T11:34:38.619Z,7.76
2018-12-13T11:35:38.813Z,7.72
2018-12-13T11:36:39.023Z,7.82
2018-12-13T11:37:39.687Z,7.88
2018-12-13T11:38:39.342Z,7.72
2018-12-13T11:39:39.592Z,7.69
2018-12-13T11:40:39.566Z,7.82
2018-12-13T11:41:39.721Z,8.05
2018-12-13T11:42:39.999Z,8.16
2018-12-13T11:43:40.200Z,8.05
2018-12-13T11:44:40.289Z,8.20
2018-12-13T11:45:40.736Z,8.24
2018-12-13T11:46:40.928Z,8.01
2018-12-13T11:47:40.927Z,8.08
2018-12-13T11:48:42.200Z,8.15
2018-12-13T11:49:41.036Z,8.42
2018-12-13T11:50:41.407Z,8.61
2018-12-13T11:51:41.585Z,8.52
2018-12-13T11:52:41.444Z,8.56
2018-12-13T11:53:42.055Z,8.56
2018-12-13T11:54:41.868Z,8.76
2018-12-13T11:55:41.902Z,8.84
2018-12-13T11:56:42.044Z,8.88
2018-12-13T11:57:42.207Z,8.87
2018-12-13T11:58:42.373Z,9.02
2018-12-13T11:59:42.572Z,9.16
2018-12-13T12:00:42.736Z,9.31
2018-12-13T12:01:42.907Z,9.23
2018-12-13T12:02:43.106Z,9.29
2018-12-13T12:03:43.279Z,9.11
2018-12-13T12:04:43.496Z,9.11
2018-12-13T12:05:43.590Z,9.16
2018-12-13T12:06:43.741Z,9.19
2018-12-13T12:07:43.907Z,9.34
2018-12-13T12:08:44.174Z,9.21
2018-12-13T12:09:44.286Z,9.36
2018-12-13T12:10:44.451Z,9.44
2018-12-13T12:11:44.608Z,9.16
2018-12-13T12:12:44.964Z,9.14
2018-12-13T12:13:44.947Z,9.08
2018-12-13T12:14:45.109Z,9.36
2018-12-13T12:15:45.302Z,9.59
2018-12-13T12:16:45.453Z,9.28
2018-12-13T12:17:45.635Z,9.58
2018-12-13T12:18:45.822Z,9.61
2018-12-13T12:19:45.986Z,9.06
2018-12-13T12:20:46.155Z,9.13
2018-12-13T12:21:46.321Z,9.65
2018-12-13T12:22:46.484Z,9.79
2018-12-13T12:23:46.681Z,9.56
2018-12-13T12:24:46.824Z,10.01
2018-12-13T12:25:46.998Z,10.23
2018-12-13T12:26:47.174Z,10.34
2018-12-13T12:27:47.329Z,10.20
2018-12-13T12:28:47.507Z,10.44
2018-12-13T12:29:47.917Z,10.37
2018-12-13T12:30:47.821Z,10.67
2018-12-13T12:31:48.994Z,10.46
2018-12-13T12:32:48.825Z,10.40
2018-12-13T12:33:48.446Z,10.10
2018-12-13T12:34:48.783Z,10.23
2018-12-13T12:35:48.966Z,10.61
2018-12-13T12:36:48.778Z,10.82
2018-12-13T12:37:48.953Z,11.00
2018-12-13T12:38:49.124Z,11.10
2018-12-13T12:39:49.304Z,10.84
2018-12-13T12:40:49.483Z,10.61
2018-12-13T12:41:49.627Z,10.09
2018-12-13T12:42:49.805Z,9.83
2018-12-13T12:43:49.981Z,9.97
2018-12-13T12:44:50.188Z,9.65
2018-12-13T12:45:50.356Z,9.58
2018-12-13T12:46:50.627Z,9.66
2018-12-13T12:47:50.846Z,9.83
2018-12-13T12:48:50.964Z,9.74
2018-12-13T12:49:51.230Z,9.73
2018-12-13T12:50:51.146Z,9.11
2018-12-13T12:51:51.431Z,8.91
2018-12-13T12:52:51.553Z,9.10
2018-12-13T12:53:51.722Z,8.78
2018-12-13T12:54:51.915Z,8.79
2018-12-13T12:55:52.085Z,8.46
2018-12-13T12:56:52.267Z,8.51
2018-12-13T12:57:52.483Z,8.36
2018-12-13T12:58:52.687Z,8.52
2018-12-13T12:59:52.893Z,8.46
2018-12-13T13:00:53.056Z,8.46
2018-12-13T13:01:53.228Z,8.58
2018-12-13T13:02:53.475Z,8.70
2018-12-13T13:03:53.773Z,8.52
2018-12-13T13:04:53.691Z,8.30
2018-12-13T13:05:53.848Z,8.49
2018-12-13T13:06:54.615Z,8.38
2018-12-13T13:07:54.202Z,8.34
2018-12-13T13:08:54.370Z,8.16
2018-12-13T13:09:54.535Z,8.00
2018-12-13T13:10:54.713Z,7.85
2018-12-13T13:11:54.950Z,7.83
2018-12-13T13:12:55.041Z,7.83
2018-12-13T13:13:55.226Z,7.56
2018-12-13T13:14:55.435Z,7.56
2018-12-13T13:15:55.586Z,7.51
2018-12-13T13:16:55.760Z,7.57